Impacts TAF Board
For situational awareness. Not to be used for flight planning purposes.
IDs:

KRSW - Ft Myers/SW Florida, FL, US

Issued at 0520 UTC 21 Sep 2018
Updated at 1127 UTC 21 Sep 2018
Potential Impact None Slight Moderate High
Time1053Z 21/12Z 21/13Z 21/14Z 21/15Z 21/16Z 21/17Z 21/18Z 21/19Z 21/20Z 21/21Z 21/22Z 21/23Z 22/00Z>>
Type OBS PRVL PRVL PRVL PRVL PRVL PRVL PRVL PRVL PRVL PRVL PRVL PRVL PRVL
VIS 10 >6 >6 >6 >6 >6 >6 >6 >6 >6 >6 >6 >6 >6
CIG -- -- -- -- -- -- -- -- -- -- -- -- -- --
Cover CLR SCT SCT SCT SCT SCT SCT SCT SCT SCT SCT SCT SCT SCT
FltCat VFR VFR VFR VFR VFR VFR VFR VFR VFR VFR VFR VFR VFR VFR
WX -- -- -- -- -- -- -- VCTS VCTS VCTS VCTS VCTS VCTS VCTS
WDir VRB VRB 80 80 80 80 80 270 270 270 270 270 270 270
WSpd 0 3 4 4 4 4 4 7 7 7 7 7 7 7
WGst -- -- -- -- -- -- -- -- -- -- -- -- -- --
Raw TAF
KRSW 210520Z 2106/2206 VRB03KT P6SM SCT250
  FM211300 08004KT P6SM FEW035 SCT250
  FM211800 27007KT P6SM VCTS SCT035CB SCT250
  FM220200 08004KT P6SM FEW035


Raw METAR
KRSW 211053Z 00000KT 10SM CLR 24/24 A3003 RMK AO2 SLP166 T02440239
KRSW 210953Z AUTO 00000KT 10SM CLR 24/24 A3001 RMK AO2 SLP158 T02440239
KRSW 210853Z AUTO 04003KT 10SM CLR 25/24 A3001 RMK AO2 SLP160 T02500244 56009

METAR Board
Radar Display
Forecast Discussion
For situational awareness. Not to be used for flight planning purposes.